createdAt,value
2018-03-21T00:01:57.788Z,-3.5
2018-03-21T00:06:56.784Z,-3.6
2018-03-21T00:11:56.802Z,-3.6
2018-03-21T00:16:56.772Z,-3.7
2018-03-21T00:21:56.844Z,-3.7
2018-03-21T00:26:57.379Z,-3.8
2018-03-21T00:31:57.336Z,-3.8
2018-03-21T00:36:57.558Z,-3.9
2018-03-21T00:41:57.646Z,-3.9
2018-03-21T00:46:56.947Z,-4
2018-03-21T00:51:57.579Z,-4
2018-03-21T00:56:57.047Z,-4.1
2018-03-21T01:01:57.001Z,-4.1
2018-03-21T01:06:57.676Z,-4.2
2018-03-21T01:11:57.612Z,-4.2
2018-03-21T01:16:56.871Z,-4.3
2018-03-21T01:21:57.126Z,-4.3
2018-03-21T01:26:57.429Z,-4.4
2018-03-21T01:31:56.941Z,-4.4
2018-03-21T01:36:56.911Z,-4.5
2018-03-21T01:41:56.847Z,-4.5
2018-03-21T01:46:57.753Z,-4.6
2018-03-21T01:51:57.142Z,-4.6
2018-03-21T01:56:57.468Z,-4.7
2018-03-21T02:01:57.050Z,-4.7
2018-03-21T02:06:57.154Z,-4.7
2018-03-21T02:11:57.343Z,-4.7
2018-03-21T02:16:57.770Z,-4.7
2018-03-21T02:21:57.126Z,-4.7
2018-03-21T02:26:57.058Z,-4.8
2018-03-21T02:31:57.461Z,-4.8
2018-03-21T02:36:57.545Z,-4.9
2018-03-21T02:41:57.741Z,-4.9
2018-03-21T02:46:57.481Z,-5
2018-03-21T02:51:58.005Z,-5
2018-03-21T02:56:57.939Z,-5.1
2018-03-21T03:01:57.380Z,-5.1
2018-03-21T03:06:57.715Z,-5.2
2018-03-21T03:11:57.423Z,-5.2
2018-03-21T03:16:57.081Z,-5.3
2018-03-21T03:21:57.200Z,-5.3
2018-03-21T03:26:57.230Z,-5.3
2018-03-21T03:31:57.359Z,-5.3
2018-03-21T03:36:57.953Z,-5.3
2018-03-21T03:41:57.907Z,-5.3
2018-03-21T03:46:57.956Z,-5.4
2018-03-21T03:51:57.973Z,-5.4
2018-03-21T03:56:57.424Z,-5.4
2018-03-21T04:01:57.046Z,-5.4
2018-03-21T04:06:57.599Z,-5.5
2018-03-21T04:11:57.384Z,-5.5
2018-03-21T04:16:57.630Z,-5.5
2018-03-21T04:21:57.624Z,-5.5
2018-03-21T04:26:57.660Z,-5.5
2018-03-21T04:31:58.088Z,-5.5
2018-03-21T04:36:58.066Z,-5.4
2018-03-21T04:41:58.075Z,-5.4
2018-03-21T04:46:57.059Z,-5.4
2018-03-21T04:51:57.101Z,-5.4
2018-03-21T04:56:57.095Z,-5.4
2018-03-21T05:01:57.261Z,-5.4
2018-03-21T05:06:57.484Z,-5.3
2018-03-21T05:11:57.408Z,-5.3
2018-03-21T05:16:57.353Z,-5.2
2018-03-21T05:21:57.667Z,-5.2
2018-03-21T05:26:57.909Z,-5.2
2018-03-21T05:31:57.601Z,-5.2
2018-03-21T05:36:57.567Z,-5.2
2018-03-21T05:41:57.734Z,-5.2
2018-03-21T05:46:57.906Z,-5.1
2018-03-21T05:51:57.937Z,-5.1
2018-03-21T05:56:57.948Z,-5
2018-03-21T06:01:57.984Z,-5
2018-03-21T06:06:57.439Z,-4.8
2018-03-21T06:11:57.474Z,-4.8
2018-03-21T06:16:57.442Z,-4.7
2018-03-21T06:21:57.468Z,-4.7
2018-03-21T06:26:57.446Z,-4.4
2018-03-21T06:31:57.482Z,-4.4
2018-03-21T06:36:57.482Z,-4.2
2018-03-21T06:41:57.594Z,-4.2
2018-03-21T06:46:57.655Z,-3.9
2018-03-21T06:51:57.879Z,-3.9
2018-03-21T06:56:57.816Z,-3.7
2018-03-21T07:01:57.926Z,-3.7
2018-03-21T07:06:57.734Z,-3.4
2018-03-21T07:11:57.965Z,-3.4
2018-03-21T07:16:57.977Z,-3.1
2018-03-21T07:21:57.282Z,-3.1
2018-03-21T07:26:57.230Z,-2.4
2018-03-21T07:31:58.239Z,-2.4
2018-03-21T07:36:58.199Z,-1.8
2018-03-21T07:41:58.179Z,-1.8
2018-03-21T07:46:58.157Z,-1.2
2018-03-21T07:51:58.196Z,-1.2
2018-03-21T07:56:58.166Z,-0.7
2018-03-21T08:01:58.192Z,-0.7
2018-03-21T08:06:58.184Z,-0.2
2018-03-21T08:11:58.077Z,-0.2
2018-03-21T08:16:58.087Z,0.3
2018-03-21T08:21:58.096Z,0.3
2018-03-21T08:26:57.979Z,0.9
2018-03-21T08:31:58.002Z,0.9
2018-03-21T08:36:57.925Z,1.9
2018-03-21T08:41:58.041Z,1.9
2018-03-21T08:46:57.974Z,2.6
2018-03-21T08:51:57.984Z,2.6
2018-03-21T08:56:57.966Z,3.1
2018-03-21T09:01:58.064Z,3.1
2018-03-21T09:06:57.506Z,3.6
2018-03-21T09:11:57.429Z,3.6
2018-03-21T09:16:57.393Z,4.3
2018-03-21T09:21:57.368Z,4.3
2018-03-21T09:26:57.361Z,4.8
2018-03-21T09:31:57.531Z,4.8
2018-03-21T09:36:57.613Z,4.9
2018-03-21T09:41:57.568Z,4.9
2018-03-21T09:46:57.553Z,5
2018-03-21T09:51:57.574Z,5
2018-03-21T09:56:57.725Z,5.2
2018-03-21T10:01:57.816Z,5.2
2018-03-21T10:06:58.035Z,6.1
2018-03-21T10:11:58.054Z,6.1
2018-03-21T10:16:57.987Z,6.3
2018-03-21T10:21:57.912Z,6.3
2018-03-21T10:26:57.865Z,6.4
2018-03-21T10:31:57.929Z,6.4
2018-03-21T10:36:57.956Z,6.4
2018-03-21T10:41:57.952Z,6.4
2018-03-21T10:46:57.963Z,6.4
2018-03-21T10:51:57.889Z,6.4
2018-03-21T10:56:57.837Z,6.8
2018-03-21T11:01:58.048Z,6.8
2018-03-21T11:06:57.908Z,6.8
2018-03-21T11:11:57.910Z,6.8
2018-03-21T11:16:57.884Z,6.7
2018-03-21T11:21:57.789Z,6.7
2018-03-21T11:26:57.692Z,6.7
2018-03-21T11:31:57.939Z,6.7
2018-03-21T11:36:57.990Z,6.5
2018-03-21T11:41:58.008Z,6.5
2018-03-21T11:46:58.068Z,6.3
2018-03-21T11:51:58.258Z,6.3
2018-03-21T11:56:58.192Z,5.9
2018-03-21T12:01:58.158Z,5.9
2018-03-21T12:06:57.739Z,5.9
2018-03-21T12:11:57.706Z,5.9
2018-03-21T12:16:57.779Z,5.9
2018-03-21T12:21:57.880Z,5.9
2018-03-21T12:26:57.878Z,5.9
2018-03-21T12:31:57.964Z,5.9
2018-03-21T12:36:58.176Z,5.8
2018-03-21T12:41:58.172Z,5.8
2018-03-21T12:46:58.294Z,5.8
2018-03-21T12:51:58.331Z,5.8
2018-03-21T12:56:58.432Z,5.6
2018-03-21T13:01:58.430Z,5.6
2018-03-21T13:06:58.061Z,5.5
2018-03-21T13:11:58.081Z,5.5
2018-03-21T13:16:58.261Z,5.4
2018-03-21T13:21:58.274Z,5.4
2018-03-21T13:26:58.211Z,5.4
2018-03-21T13:31:58.134Z,5.4
2018-03-21T13:36:58.195Z,5.4
2018-03-21T13:41:58.241Z,5.4
2018-03-21T13:46:58.358Z,5.4
2018-03-21T13:51:58.409Z,5.4
2018-03-21T13:56:58.439Z,5.5
2018-03-21T14:01:58.577Z,5.5
2018-03-21T14:06:58.657Z,5.7
2018-03-21T14:11:58.714Z,5.7
2018-03-21T14:16:57.697Z,5.6
2018-03-21T14:21:57.716Z,5.6
2018-03-21T14:26:58.627Z,5.4
2018-03-21T14:31:58.597Z,5.4
2018-03-21T14:36:57.789Z,5.2
2018-03-21T14:41:57.685Z,5.2
2018-03-21T14:46:58.645Z,5.1
2018-03-21T14:51:58.532Z,5.1
2018-03-21T14:56:58.619Z,5.1
2018-03-21T15:01:58.702Z,5.1
2018-03-21T15:06:57.783Z,5.1
2018-03-21T15:11:58.320Z,5.1
2018-03-21T15:16:58.466Z,5.1
2018-03-21T15:21:58.335Z,5.1
2018-03-21T15:26:58.264Z,5.1
2018-03-21T15:31:58.319Z,5.1
2018-03-21T15:36:58.313Z,4.9
2018-03-21T15:41:58.207Z,4.9
2018-03-21T15:46:58.196Z,4.8
2018-03-21T15:51:58.241Z,4.8
2018-03-21T15:56:58.121Z,4.7
2018-03-21T16:01:58.082Z,4.7
2018-03-21T16:06:58.077Z,4.6
2018-03-21T16:11:58.450Z,4.6
2018-03-21T16:16:58.476Z,4.4
2018-03-21T16:21:58.435Z,4.4
2018-03-21T16:26:58.378Z,4.4
2018-03-21T16:31:58.338Z,4.4
2018-03-21T16:36:58.338Z,4.3
2018-03-21T16:41:58.371Z,4.3
2018-03-21T16:46:58.279Z,4.3
2018-03-21T16:51:58.558Z,4.3
2018-03-21T16:56:58.480Z,4.2
2018-03-21T17:01:58.416Z,4.2
2018-03-21T17:06:58.818Z,4.2
2018-03-21T17:11:58.565Z,4.2
2018-03-21T17:16:58.506Z,4.1
2018-03-21T17:21:58.591Z,4.1
2018-03-21T17:26:58.542Z,4.1
2018-03-21T17:31:58.514Z,4.1
2018-03-21T17:36:58.462Z,4
2018-03-21T17:41:58.497Z,4
2018-03-21T17:46:58.427Z,3.9
2018-03-21T17:51:58.346Z,3.9
2018-03-21T17:56:58.404Z,3.8
2018-03-21T18:01:58.345Z,3.8
2018-03-21T18:06:58.511Z,3.8
2018-03-21T18:11:58.100Z,3.8
2018-03-21T18:16:58.119Z,3.8
2018-03-21T18:21:58.088Z,3.8
2018-03-21T18:26:57.943Z,3.7
2018-03-21T18:31:58.926Z,3.7
2018-03-21T18:36:57.985Z,3.7
2018-03-21T18:41:58.927Z,3.7
2018-03-21T18:46:58.871Z,3.6
2018-03-21T18:51:58.887Z,3.6
2018-03-21T18:56:58.861Z,3.6
2018-03-21T19:01:58.895Z,3.6
2018-03-21T19:06:58.034Z,3.5
2018-03-21T19:11:58.997Z,3.5
2018-03-21T19:16:58.947Z,3.4
2018-03-21T19:21:58.812Z,3.4
2018-03-21T19:26:58.714Z,3.4
2018-03-21T19:31:58.689Z,3.4
2018-03-21T19:36:58.692Z,3.4
2018-03-21T19:41:58.706Z,3.4
2018-03-21T19:46:58.649Z,3.3
2018-03-21T19:51:58.612Z,3.3
2018-03-21T19:56:58.469Z,3.3
2018-03-21T20:01:58.414Z,3.3
2018-03-21T20:06:58.893Z,3.3
2018-03-21T20:11:58.397Z,3.3
2018-03-21T20:16:58.439Z,3.3
2018-03-21T20:21:58.512Z,3.3
2018-03-21T20:26:58.386Z,3.4
2018-03-21T20:31:58.436Z,3.4
2018-03-21T20:36:58.513Z,3.3
2018-03-21T20:41:58.530Z,3.3
2018-03-21T20:46:58.465Z,3.3
2018-03-21T20:51:58.509Z,3.3
2018-03-21T20:56:58.374Z,3.3
2018-03-21T21:01:58.309Z,3.3
2018-03-21T21:06:58.289Z,3.3
2018-03-21T21:11:58.426Z,3.3
2018-03-21T21:16:58.435Z,3.3
2018-03-21T21:21:58.528Z,3.3
2018-03-21T21:26:58.502Z,3.2
2018-03-21T21:31:59.112Z,3.2
2018-03-21T21:36:59.141Z,3.2
2018-03-21T21:41:58.225Z,3.2
2018-03-21T21:46:58.333Z,3.1
2018-03-21T21:51:58.439Z,3.1
2018-03-21T21:56:58.477Z,2.9
2018-03-21T22:01:58.627Z,2.9
2018-03-21T22:06:58.600Z,2.9
2018-03-21T22:11:58.860Z,2.9
2018-03-21T22:16:58.797Z,2.8
2018-03-21T22:21:58.779Z,2.8
2018-03-21T22:26:58.819Z,2.8
2018-03-21T22:31:58.938Z,2.8
2018-03-21T22:36:59.139Z,2.8
2018-03-21T22:41:59.124Z,2.8
2018-03-21T22:46:59.188Z,2.8
2018-03-21T22:51:59.191Z,2.8
2018-03-21T22:56:59.219Z,2.8
2018-03-21T23:01:58.415Z,2.8
2018-03-21T23:06:58.590Z,2.8
2018-03-21T23:11:58.757Z,2.8
2018-03-21T23:16:58.768Z,2.8
2018-03-21T23:21:58.791Z,2.8
2018-03-21T23:26:58.717Z,2.8
2018-03-21T23:31:58.852Z,2.8
2018-03-21T23:36:59.052Z,2.7
2018-03-21T23:41:58.972Z,2.7
2018-03-21T23:46:59.008Z,2.7
2018-03-21T23:51:59.033Z,2.7
2018-03-21T23:56:59.108Z,2.7
